Aviation Digital Data Service (ADDS)

Output produced by METARs form (1253 UTC 20 September 2017)
found at http://aviationweather.gov/adds/metars/
 
KRUT 201136Z 2012/2112 VRB03KT P6SM BKN080 
     FM201700 36008KT P6SM BKN050 
     FM202300 36006KT P6SM SCT070